Liberty — WDD6569 — position and weather

sailwx.info

Track history (hours):
 
Tides and Currents Weather Stations Pressure Air Temp Water Temp Dewpoint Dewpoint Depression Visibility Wind Speed Wind Dir Waves Ship Positions

Liberty

Owner: Tampa Tugs Three, LLC, Tampa, FL. More information available from US FCC via Universal Licensing System and Coast Guard Vessel Documentation Center.

Last reported at 2017-Oct-21 15:29 UTC. Time now 2017-Oct-22 08:10 UTC.
Position N 27°43' W 082°33'.

Length 29 m.

Type: Tug. MMSI: 367174670.

Date/timePositionNaut miles runAvg speedWind from/ knotsBaromVisibWave heightAir tempDewpointWater temp
2017-Oct-21 15:29N 27°43' W 082°33'5 9.5
2017-Oct-21 15:00N 27°47' W 082°31'8 7.8
2017-Oct-21 14:00N 27°51' W 082°24'0 0.0
2017-Oct-21 13:30N 27°51' W 082°24'0 0.0
2017-Oct-21 13:00N 27°51' W 082°24'0 0.0
2017-Oct-21 12:30N 27°51' W 082°24'0 0.0
2017-Oct-21 12:00N 27°51' W 082°24'0 0.0
2017-Oct-21 11:30N 27°51' W 082°24'0 0.0
2017-Oct-21 11:00N 27°51' W 082°24'0 0.0
2017-Oct-21 10:30N 27°51' W 082°24'0 0.0
2017-Oct-21 10:00N 27°51' W 082°24'0 0.0
2017-Oct-21 09:31N 27°51' W 082°24'0 0.1
2017-Oct-21 08:44N 27°51' W 082°24'0 0.4
2017-Oct-21 08:30N 27°51' W 082°24'3 5.7
2017-Oct-21 08:00N 27°50' W 082°27'2 3.7
2017-Oct-21 07:30N 27°49' W 082°27'2 4.3
2017-Oct-21 06:59N 27°48' W 082°29'5 9.6
2017-Oct-21 06:30N 27°52' W 082°27'4 8.9
2017-Oct-21 06:00N 27°56' W 082°26'0 0.0
2017-Oct-21 05:30N 27°56' W 082°26'0 0.0
2017-Oct-21 05:00N 27°56' W 082°26'0 0.0
2017-Oct-21 04:30N 27°56' W 082°26'0 0.0
2017-Oct-21 04:00N 27°56' W 082°26'0 0.0
2017-Oct-21 03:30N 27°56' W 082°26'0 0.0
2017-Oct-21 03:00N 27°56' W 082°26'0 0.0
2017-Oct-21 02:30N 27°56' W 082°26'0 0.0
2017-Oct-21 02:00N 27°56' W 082°26'0 0.0
2017-Oct-21 01:30N 27°56' W 082°26'0 0.0
2017-Oct-21 01:00N 27°56' W 082°26'0 0.0
2017-Oct-21 00:30N 27°56' W 082°26'0 0.0
2017-Oct-21 00:00N 27°56' W 082°26'0 0.0
2017-Oct-20 23:30N 27°56' W 082°26'0 0.0
2017-Oct-20 23:00N 27°56' W 082°26'0 0.0
2017-Oct-20 22:30N 27°56' W 082°26'0 0.0
2017-Oct-20 22:00N 27°56' W 082°26'0 0.0
2017-Oct-20 21:30N 27°56' W 082°26'0 0.0
2017-Oct-20 21:00N 27°56' W 082°26'0 0.0
2017-Oct-20 20:30N 27°56' W 082°26'0 0.0
2017-Oct-20 20:00N 27°56' W 082°26'0 0.0
2017-Oct-20 19:30N 27°56' W 082°26'0 0.0
2017-Oct-20 19:00N 27°56' W 082°26'0 0.0
2017-Oct-20 18:30N 27°56' W 082°26'0 0.0
2017-Oct-20 18:00N 27°56' W 082°26'0 0.0
2017-Oct-20 17:30N 27°56' W 082°26'0 0.0
2017-Oct-20 17:00N 27°56' W 082°26'3 6.9
2017-Oct-20 16:30N 27°53' W 082°26'5 9.5
2017-Oct-20 16:00N 27°48' W 082°28'5 9.2
2017-Oct-20 15:27N 27°47' W 082°34'4 9.2
2017-Oct-20 15:00N 27°52' W 082°33'1 1.1
2017-Oct-20 14:00N 27°51' W 082°34'4 6.8
2017-Oct-20 13:28N 27°47' W 082°32'5 9.9
2017-Oct-20 13:00N 27°49' W 082°27'510.1
2017-Oct-20 12:30N 27°54' W 082°26'2 4.7
2017-Oct-20 12:00N 27°56' W 082°26'0 0.0
2017-Oct-20 11:30N 27°56' W 082°26'0 0.0
2017-Oct-20 11:00N 27°56' W 082°26'0 0.0
2017-Oct-20 10:30N 27°56' W 082°26'1 2.1
2017-Oct-20 10:00N 27°55' W 082°26'1 1.7
2017-Oct-20 09:30N 27°54' W 082°26'0 0.5
2017-Oct-20 09:00N 27°54' W 082°26'0 0.4
2017-Oct-20 08:30N 27°54' W 082°26'2 3.6
2017-Oct-20 08:00N 27°56' W 082°26'0 0.0
2017-Oct-20 07:30N 27°56' W 082°26'0 0.0
2017-Oct-20 07:00N 27°56' W 082°26'0 0.0
2017-Oct-20 06:30N 27°56' W 082°26'0 0.0
2017-Oct-20 06:00N 27°56' W 082°26'0 0.0
2017-Oct-20 05:30N 27°56' W 082°26'0 0.0
2017-Oct-20 05:00N 27°56' W 082°26'0 0.0
2017-Oct-20 04:30N 27°56' W 082°26'0 0.0
2017-Oct-20 04:00N 27°56' W 082°26'0 0.0
2017-Oct-20 03:30N 27°56' W 082°26'0 0.0
2017-Oct-20 03:00N 27°56' W 082°26'0 0.0
2017-Oct-20 02:30N 27°56' W 082°26'0 0.0
2017-Oct-20 02:00N 27°56' W 082°26'0 0.0
2017-Oct-20 01:30N 27°56' W 082°26'0 0.0
2017-Oct-20 01:00N 27°56' W 082°26'0 0.0
2017-Oct-20 00:30N 27°56' W 082°26'0 0.0
2017-Oct-20 00:00N 27°56' W 082°26'0 0.0
2017-Oct-19 23:30N 27°56' W 082°26'0 0.0
2017-Oct-19 23:01N 27°56' W 082°26'1 1.8
2017-Oct-19 22:30N 27°55' W 082°26'2 3.6
2017-Oct-19 22:00N 27°53' W 082°26'2 4.1
2017-Oct-19 21:30N 27°51' W 082°27'3 5.5
2017-Oct-19 21:00N 27°51' W 082°24'0 0.0
2017-Oct-19 20:29N 27°51' W 082°24'3 5.7
2017-Oct-19 20:00N 27°52' W 082°27'4 9.0
2017-Oct-19 19:30N 27°56' W 082°26'0 0.0
2017-Oct-19 19:00N 27°56' W 082°26'0 0.0
2017-Oct-19 18:30N 27°56' W 082°26'0 0.0
2017-Oct-19 18:00N 27°56' W 082°26'0 0.0
2017-Oct-19 17:30N 27°56' W 082°26'1 1.3
2017-Oct-19 17:00N 27°56' W 082°27'1 1.9
2017-Oct-19 16:30N 27°57' W 082°27'0 0.0
2017-Oct-19 16:00N 27°57' W 082°27'3 5.3
2017-Oct-19 15:31N 27°54' W 082°26'2 3.6
2017-Oct-19 15:00N 27°56' W 082°26'0 0.0
2017-Oct-19 14:30N 27°56' W 082°26'0 0.0
2017-Oct-19 14:00N 27°56' W 082°26'0 0.0
2017-Oct-19 13:30N 27°56' W 082°26'0 0.0
2017-Oct-19 13:00N 27°56' W 082°26'0 0.0
2017-Oct-19 12:30N 27°56' W 082°26'1 2.0
2017-Oct-19 12:00N 27°55' W 082°27'0 0.1
2017-Oct-19 11:30N 27°55' W 082°27'1 2.1
2017-Oct-19 11:00N 27°56' W 082°26'0 0.0
2017-Oct-19 10:30N 27°56' W 082°26'0 0.0
2017-Oct-19 10:00N 27°56' W 082°26'0 0.0
2017-Oct-19 09:30N 27°56' W 082°26'0 0.0
2017-Oct-19 09:00N 27°56' W 082°26'0 0.0
2017-Oct-19 08:30N 27°56' W 082°26'0 0.0
2017-Oct-19 08:00N 27°56' W 082°26'0 0.0
2017-Oct-19 07:30N 27°56' W 082°26'0 0.0
2017-Oct-19 07:00N 27°56' W 082°26'0 0.0
2017-Oct-19 06:30N 27°56' W 082°26'0 0.0
2017-Oct-19 06:00N 27°56' W 082°26'0 0.0
2017-Oct-19 05:30N 27°56' W 082°26'0 0.0
2017-Oct-19 05:00N 27°56' W 082°26'0 0.0
2017-Oct-19 04:30N 27°56' W 082°26'0 0.0
2017-Oct-19 04:00N 27°56' W 082°26'0 0.0
2017-Oct-19 03:30N 27°56' W 082°26'0 0.0
2017-Oct-19 03:00N 27°56' W 082°26'0 0.0
2017-Oct-19 02:30N 27°56' W 082°26'0 0.0
2017-Oct-19 02:00N 27°56' W 082°26'0 0.0
2017-Oct-19 01:30N 27°56' W 082°26'0 0.0
2017-Oct-19 01:00N 27°56' W 082°26'0 0.0
2017-Oct-19 00:30N 27°56' W 082°26'0 0.0
2017-Oct-19 00:00N 27°56' W 082°26'0 0.0
2017-Oct-18 23:30N 27°56' W 082°26'0 0.0
2017-Oct-18 23:00N 27°56' W 082°26'0 0.0
2017-Oct-18 22:30N 27°56' W 082°26'0 0.0
2017-Oct-18 22:00N 27°56' W 082°26'0 0.0
2017-Oct-18 21:30N 27°56' W 082°26'0 0.0
2017-Oct-18 21:00N 27°56' W 082°26'0 0.0
2017-Oct-18 20:30N 27°56' W 082°26'0 0.0
2017-Oct-18 20:00N 27°56' W 082°26'2 3.3
2017-Oct-18 19:30N 27°54' W 082°26'3 5.5
2017-Oct-18 19:00N 27°57' W 082°27'0 0.1
2017-Oct-18 18:30N 27°57' W 082°27'3 5.3
2017-Oct-18 18:00N 27°54' W 082°26'1 2.9
2017-Oct-18 17:30N 27°56' W 082°26'1 1.8
2017-Oct-18 17:00N 27°55' W 082°26'611.4
2017-Oct-18 16:30N 27°49' W 082°27'2 4.6
2017-Oct-18 16:00N 27°48' W 082°24'0 0.7
2017-Oct-18 15:30N 27°48' W 082°25'2 4.5
2017-Oct-18 15:00N 27°49' W 082°27'2 2.3
2017-Oct-18 14:00N 27°51' W 082°27'4 7.5
2017-Oct-18 13:30N 27°54' W 082°26'2 3.2
2017-Oct-18 13:00N 27°56' W 082°26'0 0.0
2017-Oct-18 12:30N 27°56' W 082°26'0 0.0
2017-Oct-18 12:00N 27°56' W 082°26'0 0.0
2017-Oct-18 11:30N 27°56' W 082°26'0 0.0
2017-Oct-18 11:00N 27°56' W 082°26'0 0.0
2017-Oct-18 10:30N 27°56' W 082°26'0 0.0
2017-Oct-18 10:00N 27°56' W 082°26'0 0.0
2017-Oct-18 09:30N 27°56' W 082°26'0 0.0
2017-Oct-18 09:00N 27°56' W 082°26'0 0.0
2017-Oct-18 08:30N 27°56' W 082°26'0 0.0
2017-Oct-18 08:00N 27°56' W 082°26'0 0.0
2017-Oct-18 07:30N 27°56' W 082°26'0 0.0
2017-Oct-18 07:00N 27°56' W 082°26'0 0.0
2017-Oct-18 06:30N 27°56' W 082°26'0 0.0
2017-Oct-18 06:00N 27°56' W 082°26'0 0.0
2017-Oct-18 05:30N 27°56' W 082°26'2 3.5
2017-Oct-18 05:00N 27°54' W 082°26'1 1.4
2017-Oct-18 04:30N 27°55' W 082°27'0 0.5
2017-Oct-18 04:00N 27°55' W 082°27'0 0.1
2017-Oct-18 03:31N 27°55' W 082°27'1 2.7
2017-Oct-18 03:00N 27°56' W 082°26'0 0.0
2017-Oct-18 02:30N 27°56' W 082°26'0 0.0
2017-Oct-18 02:00N 27°56' W 082°26'0 0.0
2017-Oct-18 01:30N 27°56' W 082°26'0 0.0
2017-Oct-18 01:00N 27°56' W 082°26'0 0.0
2017-Oct-18 00:30N 27°56' W 082°26'0 0.0
2017-Oct-18 00:00N 27°56' W 082°26'0 0.0
2017-Oct-17 23:30N 27°56' W 082°26'2 4.1
2017-Oct-17 23:00N 27°54' W 082°26'510.6
2017-Oct-17 22:30N 27°49' W 082°27'5 9.9
2017-Oct-17 22:00N 27°47' W 082°32'4 8.4
2017-Oct-17 21:30N 27°51' W 082°33'1 1.5
2017-Oct-17 21:00N 27°52' W 082°33'0 0.0
2017-Oct-17 20:30N 27°52' W 082°33'0 0.0
2017-Oct-17 20:00N 27°52' W 082°33'0 0.0
2017-Oct-17 19:30N 27°52' W 082°33'0 0.0
2017-Oct-17 19:00N 27°52' W 082°33'0 0.5
2017-Oct-17 18:30N 27°52' W 082°33'2 4.1
2017-Oct-17 18:00N 27°50' W 082°34'4 7.6
2017-Oct-17 17:30N 27°47' W 082°31'5 9.4
2017-Oct-17 17:00N 27°51' W 082°27'5 9.9
2017-Oct-17 16:30N 27°55' W 082°26'1 1.6
2017-Oct-17 16:00N 27°56' W 082°26'0 0.0
2017-Oct-17 15:31N 27°56' W 082°26'1 1.8
2017-Oct-17 15:00N 27°56' W 082°27'0 0.4
2017-Oct-17 14:30N 27°56' W 082°27'0 0.4
2017-Oct-17 14:00N 27°55' W 082°27'0 0.1
2017-Oct-17 13:31N 27°55' W 082°27'0 0.1
2017-Oct-17 13:00N 27°56' W 082°27'1 2.5
2017-Oct-17 12:30N 27°54' W 082°26'2 3.4
2017-Oct-17 12:00N 27°56' W 082°26'0 0.0
2017-Oct-17 11:30N 27°56' W 082°26'0 0.0
2017-Oct-17 11:00N 27°56' W 082°26'0 0.0
2017-Oct-17 10:30N 27°56' W 082°26'0 0.0
2017-Oct-17 10:00N 27°56' W 082°26'1 1.6
2017-Oct-17 09:30N 27°55' W 082°26'0 0.4
2017-Oct-17 09:00N 27°55' W 082°26'1 1.4
2017-Oct-17 08:30N 27°54' W 082°26'2 3.2
2017-Oct-17 08:00N 27°53' W 082°27'2 3.1
2017-Oct-17 07:30N 27°54' W 082°26'0 0.9
2017-Oct-17 07:00N 27°55' W 082°26'0 0.0
2017-Oct-17 06:30N 27°55' W 082°26'0 0.0
2017-Oct-17 06:00N 27°55' W 082°26'0 0.0
2017-Oct-17 05:30N 27°55' W 082°26'0 0.0
2017-Oct-17 05:00N 27°55' W 082°26'0 0.0
2017-Oct-17 04:30N 27°55' W 082°26'0 0.0
2017-Oct-17 04:00N 27°55' W 082°26'0 0.0
2017-Oct-17 03:30N 27°55' W 082°26'0 0.0
2017-Oct-17 03:00N 27°55' W 082°26'1 1.7
2017-Oct-17 02:30N 27°55' W 082°27'0 0.5
2017-Oct-17 02:00N 27°55' W 082°27'2 4.2
2017-Oct-17 01:30N 27°53' W 082°26'2 3.3
2017-Oct-17 01:00N 27°54' W 082°26'2 3.9
2017-Oct-17 00:31N 27°56' W 082°27'0 0.8
2017-Oct-17 00:00N 27°57' W 082°27'2 4.4
2017-Oct-16 23:30N 27°55' W 082°26'1 2.8
2017-Oct-16 23:00N 27°56' W 082°26'0 0.0
2017-Oct-16 22:30N 27°56' W 082°26'0 0.0
2017-Oct-16 22:00N 27°56' W 082°26'0 0.0
2017-Oct-16 21:30N 27°56' W 082°26'0 0.0
2017-Oct-16 21:00N 27°56' W 082°26'0 0.0
2017-Oct-16 20:30N 27°56' W 082°26'0 0.0
2017-Oct-16 20:00N 27°56' W 082°26'0 0.0
2017-Oct-16 19:30N 27°56' W 082°26'0 0.0
2017-Oct-16 19:00N 27°56' W 082°26'0 0.0
2017-Oct-16 18:30N 27°56' W 082°26'0 0.0
2017-Oct-16 18:00N 27°56' W 082°26'0 0.0
2017-Oct-16 17:30N 27°56' W 082°26'0 0.0
2017-Oct-16 17:00N 27°56' W 082°26'0 0.0
2017-Oct-16 16:30N 27°56' W 082°26'2 3.7
2017-Oct-16 16:00N 27°54' W 082°25'0 0.0
2017-Oct-16 15:30N 27°54' W 082°25'  
2017-Oct-13 20:52N 27°56' W 082°27'0 0.1
2017-Oct-13 20:30N 27°56' W 082°27'0 0.0
2017-Oct-13 20:00N 27°56' W 082°27'2 3.1
2017-Oct-13 19:30N 27°55' W 082°26'0 0.0
2017-Oct-13 19:00N 27°55' W 082°26'1 1.1
2017-Oct-13 18:30N 27°54' W 082°26'1 2.6
2017-Oct-13 18:00N 27°53' W 082°27'1 1.1
2017-Oct-13 17:30N 27°53' W 082°26'3 5.2
2017-Oct-13 17:00N 27°56' W 082°26'0 0.0
2017-Oct-13 16:30N 27°56' W 082°26'0 0.0
2017-Oct-13 16:00N 27°56' W 082°26'2 4.0
2017-Oct-13 15:30N 27°54' W 082°26'1 2.6
2017-Oct-13 15:00N 27°55' W 082°26'0 0.4
2017-Oct-13 14:30N 27°55' W 082°25'1 1.4
2017-Oct-13 14:00N 27°54' W 082°26'4 7.2
2017-Oct-13 13:30N 27°51' W 082°27'1 1.2
2017-Oct-13 13:00N 27°51' W 082°26'2 1.8
2017-Oct-13 11:43N 27°51' W 082°23'0 0.8
2017-Oct-13 11:30N 27°51' W 082°24'3 6.5
2017-Oct-13 11:00N 27°53' W 082°26'3 5.2
2017-Oct-13 10:30N 27°56' W 082°26'0 0.0
2017-Oct-13 10:00N 27°56' W 082°26'0 0.0
2017-Oct-13 09:30N 27°56' W 082°26'0 0.0
2017-Oct-13 09:00N 27°56' W 082°26'0 0.0
2017-Oct-13 08:30N 27°56' W 082°26'0 0.0
2017-Oct-13 08:00N 27°56' W 082°26'0 0.0
2017-Oct-13 07:30N 27°56' W 082°26'0 0.0
2017-Oct-13 07:00N 27°56' W 082°26'0 0.0
2017-Oct-13 06:30N 27°56' W 082°26'0 0.0
2017-Oct-13 06:00N 27°56' W 082°26'0 0.0
2017-Oct-13 05:30N 27°56' W 082°26'0 0.0
2017-Oct-13 05:00N 27°56' W 082°26'0 0.0
2017-Oct-13 04:30N 27°56' W 082°26'0 0.0
2017-Oct-13 04:00N 27°56' W 082°26'0 0.0
2017-Oct-13 03:30N 27°56' W 082°26'0 0.0
2017-Oct-13 03:00N 27°56' W 082°26'0 0.0
2017-Oct-13 02:30N 27°56' W 082°26'0 0.0
2017-Oct-13 02:00N 27°56' W 082°26'0 0.0
2017-Oct-13 01:30N 27°56' W 082°26'0 0.0
2017-Oct-13 01:00N 27°56' W 082°26'0 0.0
2017-Oct-13 00:30N 27°56' W 082°26'0 0.0
2017-Oct-13 00:00N 27°56' W 082°26'0 0.0
2017-Oct-12 23:30N 27°56' W 082°26'0 0.2
2017-Oct-12 23:00N 27°56' W 082°26'1 1.9
2017-Oct-12 22:30N 27°55' W 082°27'0 0.1
2017-Oct-12 22:00N 27°55' W 082°27'0 0.0
2017-Oct-12 21:30N 27°55' W 082°27'1 1.5
2017-Oct-12 21:00N 27°56' W 082°27'0 0.2
2017-Oct-12 20:30N 27°56' W 082°27'1 1.1
2017-Oct-12 20:01N 27°55' W 082°27'2 4.8
2017-Oct-12 19:30N 27°53' W 082°26'0 0.7
2017-Oct-12 19:00N 27°53' W 082°26'3 5.3
2017-Oct-12 18:30N 27°56' W 082°26'0 0.0
2017-Oct-12 18:00N 27°56' W 082°26'0 0.0
2017-Oct-12 17:30N 27°56' W 082°26'0 0.0
2017-Oct-12 17:00N 27°56' W 082°26'0 0.0
2017-Oct-12 16:30N 27°56' W 082°26'0 0.0
2017-Oct-12 16:00N 27°56' W 082°26'0 0.0
2017-Oct-12 15:30N 27°56' W 082°26'0 0.0
2017-Oct-12 15:00N 27°56' W 082°26'0 0.0
2017-Oct-12 14:30N 27°56' W 082°26'0 0.0
2017-Oct-12 14:00N 27°56' W 082°26'0 0.0
2017-Oct-12 13:30N 27°56' W 082°26'0 0.0
2017-Oct-12 13:00N 27°56' W 082°26'0 0.0
2017-Oct-12 12:30N 27°56' W 082°26'0 0.0
2017-Oct-12 12:00N 27°56' W 082°26'0 0.0
2017-Oct-12 11:30N 27°56' W 082°26'0 0.0
2017-Oct-12 11:00N 27°56' W 082°26'0 0.0
2017-Oct-12 10:30N 27°56' W 082°26'0 0.0
2017-Oct-12 10:00N 27°56' W 082°26'0 0.0
2017-Oct-12 09:30N 27°56' W 082°26'0 0.0
2017-Oct-12 09:00N 27°56' W 082°26'0 0.0
2017-Oct-12 08:30N 27°56' W 082°26'0 0.0
2017-Oct-12 08:00N 27°56' W 082°26'0 0.0
2017-Oct-12 07:30N 27°56' W 082°26'0 0.0
2017-Oct-12 07:00N 27°56' W 082°26'0 0.0
2017-Oct-12 06:30N 27°56' W 082°26'0 0.0
2017-Oct-12 06:00N 27°56' W 082°26'0 0.0
2017-Oct-12 05:30N 27°56' W 082°26'0 0.0
2017-Oct-12 05:00N 27°56' W 082°26'0 0.0
2017-Oct-12 04:30N 27°56' W 082°26'0 0.0
2017-Oct-12 04:00N 27°56' W 082°26'0 0.0
2017-Oct-12 03:30N 27°56' W 082°26'0 0.0
2017-Oct-12 03:00N 27°56' W 082°26'0 0.0
2017-Oct-12 02:30N 27°56' W 082°26'1 2.1
2017-Oct-12 02:01N 27°55' W 082°27'0 0.4
2017-Oct-12 01:31N 27°55' W 082°27'2 4.0
2017-Oct-12 01:00N 27°53' W 082°27'3 5.1
2017-Oct-12 00:30N 27°55' W 082°26'1 1.5
2017-Oct-12 00:00N 27°56' W 082°26'0 0.0
2017-Oct-11 23:30N 27°56' W 082°26'0 0.0
2017-Oct-11 23:00N 27°56' W 082°26'0 0.0
2017-Oct-11 22:30N 27°56' W 082°26'0 0.0
2017-Oct-11 22:00N 27°56' W 082°26'0 0.0
2017-Oct-11 21:30N 27°56' W 082°26'0 0.0
2017-Oct-11 21:00N 27°56' W 082°26'0 0.0
2017-Oct-11 20:30N 27°56' W 082°26'0 0.0
2017-Oct-11 20:00N 27°56' W 082°26'0 0.0
2017-Oct-11 19:30N 27°56' W 082°26'0 0.0
2017-Oct-11 19:00N 27°56' W 082°26'0 0.0
2017-Oct-11 18:30N 27°56' W 082°26'0 0.0
2017-Oct-11 18:00N 27°56' W 082°26'0 0.0
2017-Oct-11 17:30N 27°56' W 082°26'0 0.0
2017-Oct-11 17:00N 27°56' W 082°26'  
Track history (hours):
 
Tides and Currents Weather Stations Pressure Air Temp Water Temp Dewpoint Dewpoint Depression Visibility Wind Speed Wind Dir Waves Ship Positions

Liberty

Owner: Tampa Tugs Three, LLC, Tampa, FL. More information available from US FCC via Universal Licensing System and Coast Guard Vessel Documentation Center.

Last reported at 2017-Oct-21 15:29 UTC. Time now 2017-Oct-22 08:10 UTC.
Position N 27°43' W 082°33'.

Length 29 m.

Type: Tug. MMSI: 367174670.

Date/timePositionNaut miles runAvg speedWind from/ knotsBaromVisibWave heightAir tempDewpointWater temp
2017-Oct-21 15:29N 27°43' W 082°33'5 9.5
2017-Oct-21 15:00N 27°47' W 082°31'8 7.8
2017-Oct-21 14:00N 27°51' W 082°24'0 0.0
2017-Oct-21 13:30N 27°51' W 082°24'0 0.0
2017-Oct-21 13:00N 27°51' W 082°24'0 0.0
2017-Oct-21 12:30N 27°51' W 082°24'0 0.0
2017-Oct-21 12:00N 27°51' W 082°24'0 0.0
2017-Oct-21 11:30N 27°51' W 082°24'0 0.0
2017-Oct-21 11:00N 27°51' W 082°24'0 0.0
2017-Oct-21 10:30N 27°51' W 082°24'0 0.0
2017-Oct-21 10:00N 27°51' W 082°24'0 0.0
2017-Oct-21 09:31N 27°51' W 082°24'0 0.1
2017-Oct-21 08:44N 27°51' W 082°24'0 0.4
2017-Oct-21 08:30N 27°51' W 082°24'3 5.7
2017-Oct-21 08:00N 27°50' W 082°27'2 3.7
2017-Oct-21 07:30N 27°49' W 082°27'2 4.3
2017-Oct-21 06:59N 27°48' W 082°29'5 9.6
2017-Oct-21 06:30N 27°52' W 082°27'4 8.9
2017-Oct-21 06:00N 27°56' W 082°26'0 0.0
2017-Oct-21 05:30N 27°56' W 082°26'0 0.0
2017-Oct-21 05:00N 27°56' W 082°26'0 0.0
2017-Oct-21 04:30N 27°56' W 082°26'0 0.0
2017-Oct-21 04:00N 27°56' W 082°26'0 0.0
2017-Oct-21 03:30N 27°56' W 082°26'0 0.0
2017-Oct-21 03:00N 27°56' W 082°26'0 0.0
2017-Oct-21 02:30N 27°56' W 082°26'0 0.0
2017-Oct-21 02:00N 27°56' W 082°26'0 0.0
2017-Oct-21 01:30N 27°56' W 082°26'0 0.0
2017-Oct-21 01:00N 27°56' W 082°26'0 0.0
2017-Oct-21 00:30N 27°56' W 082°26'0 0.0
2017-Oct-21 00:00N 27°56' W 082°26'0 0.0
2017-Oct-20 23:30N 27°56' W 082°26'0 0.0
2017-Oct-20 23:00N 27°56' W 082°26'0 0.0
2017-Oct-20 22:30N 27°56' W 082°26'0 0.0
2017-Oct-20 22:00N 27°56' W 082°26'0 0.0
2017-Oct-20 21:30N 27°56' W 082°26'0 0.0
2017-Oct-20 21:00N 27°56' W 082°26'0 0.0
2017-Oct-20 20:30N 27°56' W 082°26'0 0.0
2017-Oct-20 20:00N 27°56' W 082°26'0 0.0
2017-Oct-20 19:30N 27°56' W 082°26'0 0.0
2017-Oct-20 19:00N 27°56' W 082°26'0 0.0
2017-Oct-20 18:30N 27°56' W 082°26'0 0.0
2017-Oct-20 18:00N 27°56' W 082°26'0 0.0
2017-Oct-20 17:30N 27°56' W 082°26'0 0.0
2017-Oct-20 17:00N 27°56' W 082°26'3 6.9
2017-Oct-20 16:30N 27°53' W 082°26'5 9.5
2017-Oct-20 16:00N 27°48' W 082°28'5 9.2
2017-Oct-20 15:27N 27°47' W 082°34'4 9.2
2017-Oct-20 15:00N 27°52' W 082°33'1 1.1
2017-Oct-20 14:00N 27°51' W 082°34'4 6.8
2017-Oct-20 13:28N 27°47' W 082°32'5 9.9
2017-Oct-20 13:00N 27°49' W 082°27'510.1
2017-Oct-20 12:30N 27°54' W 082°26'2 4.7
2017-Oct-20 12:00N 27°56' W 082°26'0 0.0
2017-Oct-20 11:30N 27°56' W 082°26'0 0.0
2017-Oct-20 11:00N 27°56' W 082°26'0 0.0
2017-Oct-20 10:30N 27°56' W 082°26'1 2.1
2017-Oct-20 10:00N 27°55' W 082°26'1 1.7
2017-Oct-20 09:30N 27°54' W 082°26'0 0.5
2017-Oct-20 09:00N 27°54' W 082°26'0 0.4
2017-Oct-20 08:30N 27°54' W 082°26'2 3.6
2017-Oct-20 08:00N 27°56' W 082°26'0 0.0
2017-Oct-20 07:30N 27°56' W 082°26'0 0.0
2017-Oct-20 07:00N 27°56' W 082°26'0 0.0
2017-Oct-20 06:30N 27°56' W 082°26'0 0.0
2017-Oct-20 06:00N 27°56' W 082°26'0 0.0
2017-Oct-20 05:30N 27°56' W 082°26'0 0.0
2017-Oct-20 05:00N 27°56' W 082°26'0 0.0
2017-Oct-20 04:30N 27°56' W 082°26'0 0.0
2017-Oct-20 04:00N 27°56' W 082°26'0 0.0
2017-Oct-20 03:30N 27°56' W 082°26'0 0.0
2017-Oct-20 03:00N 27°56' W 082°26'0 0.0
2017-Oct-20 02:30N 27°56' W 082°26'0 0.0
2017-Oct-20 02:00N 27°56' W 082°26'0 0.0
2017-Oct-20 01:30N 27°56' W 082°26'0 0.0
2017-Oct-20 01:00N 27°56' W 082°26'0 0.0
2017-Oct-20 00:30N 27°56' W 082°26'0 0.0
2017-Oct-20 00:00N 27°56' W 082°26'0 0.0
2017-Oct-19 23:30N 27°56' W 082°26'0 0.0
2017-Oct-19 23:01N 27°56' W 082°26'1 1.8
2017-Oct-19 22:30N 27°55' W 082°26'2 3.6
2017-Oct-19 22:00N 27°53' W 082°26'2 4.1
2017-Oct-19 21:30N 27°51' W 082°27'3 5.5
2017-Oct-19 21:00N 27°51' W 082°24'0 0.0
2017-Oct-19 20:29N 27°51' W 082°24'3 5.7
2017-Oct-19 20:00N 27°52' W 082°27'4 9.0
2017-Oct-19 19:30N 27°56' W 082°26'0 0.0
2017-Oct-19 19:00N 27°56' W 082°26'0 0.0
2017-Oct-19 18:30N 27°56' W 082°26'0 0.0
2017-Oct-19 18:00N 27°56' W 082°26'0 0.0
2017-Oct-19 17:30N 27°56' W 082°26'1 1.3
2017-Oct-19 17:00N 27°56' W 082°27'1 1.9
2017-Oct-19 16:30N 27°57' W 082°27'0 0.0
2017-Oct-19 16:00N 27°57' W 082°27'3 5.3
2017-Oct-19 15:31N 27°54' W 082°26'2 3.6
2017-Oct-19 15:00N 27°56' W 082°26'0 0.0
2017-Oct-19 14:30N 27°56' W 082°26'0 0.0
2017-Oct-19 14:00N 27°56' W 082°26'0 0.0
2017-Oct-19 13:30N 27°56' W 082°26'0 0.0
2017-Oct-19 13:00N 27°56' W 082°26'0 0.0
2017-Oct-19 12:30N 27°56' W 082°26'1 2.0
2017-Oct-19 12:00N 27°55' W 082°27'0 0.1
2017-Oct-19 11:30N 27°55' W 082°27'1 2.1
2017-Oct-19 11:00N 27°56' W 082°26'0 0.0
2017-Oct-19 10:30N 27°56' W 082°26'0 0.0
2017-Oct-19 10:00N 27°56' W 082°26'0 0.0
2017-Oct-19 09:30N 27°56' W 082°26'0 0.0
2017-Oct-19 09:00N 27°56' W 082°26'0 0.0
2017-Oct-19 08:30N 27°56' W 082°26'0 0.0
2017-Oct-19 08:00N 27°56' W 082°26'0 0.0
2017-Oct-19 07:30N 27°56' W 082°26'0 0.0
2017-Oct-19 07:00N 27°56' W 082°26'0 0.0
2017-Oct-19 06:30N 27°56' W 082°26'0 0.0
2017-Oct-19 06:00N 27°56' W 082°26'0 0.0
2017-Oct-19 05:30N 27°56' W 082°26'0 0.0
2017-Oct-19 05:00N 27°56' W 082°26'0 0.0
2017-Oct-19 04:30N 27°56' W 082°26'0 0.0
2017-Oct-19 04:00N 27°56' W 082°26'0 0.0
2017-Oct-19 03:30N 27°56' W 082°26'0 0.0
2017-Oct-19 03:00N 27°56' W 082°26'0 0.0
2017-Oct-19 02:30N 27°56' W 082°26'0 0.0
2017-Oct-19 02:00N 27°56' W 082°26'0 0.0
2017-Oct-19 01:30N 27°56' W 082°26'0 0.0
2017-Oct-19 01:00N 27°56' W 082°26'0 0.0
2017-Oct-19 00:30N 27°56' W 082°26'0 0.0
2017-Oct-19 00:00N 27°56' W 082°26'0 0.0
2017-Oct-18 23:30N 27°56' W 082°26'0 0.0
2017-Oct-18 23:00N 27°56' W 082°26'0 0.0
2017-Oct-18 22:30N 27°56' W 082°26'0 0.0
2017-Oct-18 22:00N 27°56' W 082°26'0 0.0
2017-Oct-18 21:30N 27°56' W 082°26'0 0.0
2017-Oct-18 21:00N 27°56' W 082°26'0 0.0
2017-Oct-18 20:30N 27°56' W 082°26'0 0.0
2017-Oct-18 20:00N 27°56' W 082°26'2 3.3
2017-Oct-18 19:30N 27°54' W 082°26'3 5.5
2017-Oct-18 19:00N 27°57' W 082°27'0 0.1
2017-Oct-18 18:30N 27°57' W 082°27'3 5.3
2017-Oct-18 18:00N 27°54' W 082°26'1 2.9
2017-Oct-18 17:30N 27°56' W 082°26'1 1.8
2017-Oct-18 17:00N 27°55' W 082°26'611.4
2017-Oct-18 16:30N 27°49' W 082°27'2 4.6
2017-Oct-18 16:00N 27°48' W 082°24'0 0.7
2017-Oct-18 15:30N 27°48' W 082°25'2 4.5
2017-Oct-18 15:00N 27°49' W 082°27'2 2.3
2017-Oct-18 14:00N 27°51' W 082°27'4 7.5
2017-Oct-18 13:30N 27°54' W 082°26'2 3.2
2017-Oct-18 13:00N 27°56' W 082°26'0 0.0
2017-Oct-18 12:30N 27°56' W 082°26'0 0.0
2017-Oct-18 12:00N 27°56' W 082°26'0 0.0
2017-Oct-18 11:30N 27°56' W 082°26'0 0.0
2017-Oct-18 11:00N 27°56' W 082°26'0 0.0
2017-Oct-18 10:30N 27°56' W 082°26'0 0.0
2017-Oct-18 10:00N 27°56' W 082°26'0 0.0
2017-Oct-18 09:30N 27°56' W 082°26'0 0.0
2017-Oct-18 09:00N 27°56' W 082°26'0 0.0
2017-Oct-18 08:30N 27°56' W 082°26'0 0.0
2017-Oct-18 08:00N 27°56' W 082°26'0 0.0
2017-Oct-18 07:30N 27°56' W 082°26'0 0.0
2017-Oct-18 07:00N 27°56' W 082°26'0 0.0
2017-Oct-18 06:30N 27°56' W 082°26'0 0.0
2017-Oct-18 06:00N 27°56' W 082°26'0 0.0
2017-Oct-18 05:30N 27°56' W 082°26'2 3.5
2017-Oct-18 05:00N 27°54' W 082°26'1 1.4
2017-Oct-18 04:30N 27°55' W 082°27'0 0.5
2017-Oct-18 04:00N 27°55' W 082°27'0 0.1
2017-Oct-18 03:31N 27°55' W 082°27'1 2.7
2017-Oct-18 03:00N 27°56' W 082°26'0 0.0
2017-Oct-18 02:30N 27°56' W 082°26'0 0.0
2017-Oct-18 02:00N 27°56' W 082°26'0 0.0
2017-Oct-18 01:30N 27°56' W 082°26'0 0.0
2017-Oct-18 01:00N 27°56' W 082°26'0 0.0
2017-Oct-18 00:30N 27°56' W 082°26'0 0.0
2017-Oct-18 00:00N 27°56' W 082°26'0 0.0
2017-Oct-17 23:30N 27°56' W 082°26'2 4.1
2017-Oct-17 23:00N 27°54' W 082°26'510.6
2017-Oct-17 22:30N 27°49' W 082°27'5 9.9
2017-Oct-17 22:00N 27°47' W 082°32'4 8.4
2017-Oct-17 21:30N 27°51' W 082°33'1 1.5
2017-Oct-17 21:00N 27°52' W 082°33'0 0.0
2017-Oct-17 20:30N 27°52' W 082°33'0 0.0
2017-Oct-17 20:00N 27°52' W 082°33'0 0.0
2017-Oct-17 19:30N 27°52' W 082°33'0 0.0
2017-Oct-17 19:00N 27°52' W 082°33'0 0.5
2017-Oct-17 18:30N 27°52' W 082°33'2 4.1
2017-Oct-17 18:00N 27°50' W 082°34'4 7.6
2017-Oct-17 17:30N 27°47' W 082°31'5 9.4
2017-Oct-17 17:00N 27°51' W 082°27'5 9.9
2017-Oct-17 16:30N 27°55' W 082°26'1 1.6
2017-Oct-17 16:00N 27°56' W 082°26'0 0.0
2017-Oct-17 15:31N 27°56' W 082°26'1 1.8
2017-Oct-17 15:00N 27°56' W 082°27'0 0.4
2017-Oct-17 14:30N 27°56' W 082°27'0 0.4
2017-Oct-17 14:00N 27°55' W 082°27'0 0.1
2017-Oct-17 13:31N 27°55' W 082°27'0 0.1
2017-Oct-17 13:00N 27°56' W 082°27'1 2.5
2017-Oct-17 12:30N 27°54' W 082°26'2 3.4
2017-Oct-17 12:00N 27°56' W 082°26'0 0.0
2017-Oct-17 11:30N 27°56' W 082°26'0 0.0
2017-Oct-17 11:00N 27°56' W 082°26'0 0.0
2017-Oct-17 10:30N 27°56' W 082°26'0 0.0
2017-Oct-17 10:00N 27°56' W 082°26'1 1.6
2017-Oct-17 09:30N 27°55' W 082°26'0 0.4
2017-Oct-17 09:00N 27°55' W 082°26'1 1.4
2017-Oct-17 08:30N 27°54' W 082°26'2 3.2
2017-Oct-17 08:00N 27°53' W 082°27'2 3.1
2017-Oct-17 07:30N 27°54' W 082°26'0 0.9
2017-Oct-17 07:00N 27°55' W 082°26'0 0.0
2017-Oct-17 06:30N 27°55' W 082°26'0 0.0
2017-Oct-17 06:00N 27°55' W 082°26'0 0.0
2017-Oct-17 05:30N 27°55' W 082°26'0 0.0
2017-Oct-17 05:00N 27°55' W 082°26'0 0.0
2017-Oct-17 04:30N 27°55' W 082°26'0 0.0
2017-Oct-17 04:00N 27°55' W 082°26'0 0.0
2017-Oct-17 03:30N 27°55' W 082°26'0 0.0
2017-Oct-17 03:00N 27°55' W 082°26'1 1.7
2017-Oct-17 02:30N 27°55' W 082°27'0 0.5
2017-Oct-17 02:00N 27°55' W 082°27'2 4.2
2017-Oct-17 01:30N 27°53' W 082°26'2 3.3
2017-Oct-17 01:00N 27°54' W 082°26'2 3.9
2017-Oct-17 00:31N 27°56' W 082°27'0 0.8
2017-Oct-17 00:00N 27°57' W 082°27'2 4.4
2017-Oct-16 23:30N 27°55' W 082°26'1 2.8
2017-Oct-16 23:00N 27°56' W 082°26'0 0.0
2017-Oct-16 22:30N 27°56' W 082°26'0 0.0
2017-Oct-16 22:00N 27°56' W 082°26'0 0.0
2017-Oct-16 21:30N 27°56' W 082°26'0 0.0
2017-Oct-16 21:00N 27°56' W 082°26'0 0.0
2017-Oct-16 20:30N 27°56' W 082°26'0 0.0
2017-Oct-16 20:00N 27°56' W 082°26'0 0.0
2017-Oct-16 19:30N 27°56' W 082°26'0 0.0
2017-Oct-16 19:00N 27°56' W 082°26'0 0.0
2017-Oct-16 18:30N 27°56' W 082°26'0 0.0
2017-Oct-16 18:00N 27°56' W 082°26'0 0.0
2017-Oct-16 17:30N 27°56' W 082°26'0 0.0
2017-Oct-16 17:00N 27°56' W 082°26'0 0.0
2017-Oct-16 16:30N 27°56' W 082°26'2 3.7
2017-Oct-16 16:00N 27°54' W 082°25'0 0.0
2017-Oct-16 15:30N 27°54' W 082°25'  
2017-Oct-13 20:52N 27°56' W 082°27'0 0.1
2017-Oct-13 20:30N 27°56' W 082°27'0 0.0
2017-Oct-13 20:00N 27°56' W 082°27'2 3.1
2017-Oct-13 19:30N 27°55' W 082°26'0 0.0
2017-Oct-13 19:00N 27°55' W 082°26'1 1.1
2017-Oct-13 18:30N 27°54' W 082°26'1 2.6
2017-Oct-13 18:00N 27°53' W 082°27'1 1.1
2017-Oct-13 17:30N 27°53' W 082°26'3 5.2
2017-Oct-13 17:00N 27°56' W 082°26'0 0.0
2017-Oct-13 16:30N 27°56' W 082°26'0 0.0
2017-Oct-13 16:00N 27°56' W 082°26'2 4.0
2017-Oct-13 15:30N 27°54' W 082°26'1 2.6
2017-Oct-13 15:00N 27°55' W 082°26'0 0.4
2017-Oct-13 14:30N 27°55' W 082°25'1 1.4
2017-Oct-13 14:00N 27°54' W 082°26'4 7.2
2017-Oct-13 13:30N 27°51' W 082°27'1 1.2
2017-Oct-13 13:00N 27°51' W 082°26'2 1.8
2017-Oct-13 11:43N 27°51' W 082°23'0 0.8
2017-Oct-13 11:30N 27°51' W 082°24'3 6.5
2017-Oct-13 11:00N 27°53' W 082°26'3 5.2
2017-Oct-13 10:30N 27°56' W 082°26'0 0.0
2017-Oct-13 10:00N 27°56' W 082°26'0 0.0
2017-Oct-13 09:30N 27°56' W 082°26'0 0.0
2017-Oct-13 09:00N 27°56' W 082°26'0 0.0
2017-Oct-13 08:30N 27°56' W 082°26'0 0.0
2017-Oct-13 08:00N 27°56' W 082°26'0 0.0
2017-Oct-13 07:30N 27°56' W 082°26'0 0.0
2017-Oct-13 07:00N 27°56' W 082°26'0 0.0
2017-Oct-13 06:30N 27°56' W 082°26'0 0.0
2017-Oct-13 06:00N 27°56' W 082°26'0 0.0
2017-Oct-13 05:30N 27°56' W 082°26'0 0.0
2017-Oct-13 05:00N 27°56' W 082°26'0 0.0
2017-Oct-13 04:30N 27°56' W 082°26'0 0.0
2017-Oct-13 04:00N 27°56' W 082°26'0 0.0
2017-Oct-13 03:30N 27°56' W 082°26'0 0.0
2017-Oct-13 03:00N 27°56' W 082°26'0 0.0
2017-Oct-13 02:30N 27°56' W 082°26'0 0.0
2017-Oct-13 02:00N 27°56' W 082°26'0 0.0
2017-Oct-13 01:30N 27°56' W 082°26'0 0.0
2017-Oct-13 01:00N 27°56' W 082°26'0 0.0
2017-Oct-13 00:30N 27°56' W 082°26'0 0.0
2017-Oct-13 00:00N 27°56' W 082°26'0 0.0
2017-Oct-12 23:30N 27°56' W 082°26'0 0.2
2017-Oct-12 23:00N 27°56' W 082°26'1 1.9
2017-Oct-12 22:30N 27°55' W 082°27'0 0.1
2017-Oct-12 22:00N 27°55' W 082°27'0 0.0
2017-Oct-12 21:30N 27°55' W 082°27'1 1.5
2017-Oct-12 21:00N 27°56' W 082°27'0 0.2
2017-Oct-12 20:30N 27°56' W 082°27'1 1.1
2017-Oct-12 20:01N 27°55' W 082°27'2 4.8
2017-Oct-12 19:30N 27°53' W 082°26'0 0.7
2017-Oct-12 19:00N 27°53' W 082°26'3 5.3
2017-Oct-12 18:30N 27°56' W 082°26'0 0.0
2017-Oct-12 18:00N 27°56' W 082°26'0 0.0
2017-Oct-12 17:30N 27°56' W 082°26'0 0.0
2017-Oct-12 17:00N 27°56' W 082°26'0 0.0
2017-Oct-12 16:30N 27°56' W 082°26'0 0.0
2017-Oct-12 16:00N 27°56' W 082°26'0 0.0
2017-Oct-12 15:30N 27°56' W 082°26'0 0.0
2017-Oct-12 15:00N 27°56' W 082°26'0 0.0
2017-Oct-12 14:30N 27°56' W 082°26'0 0.0
2017-Oct-12 14:00N 27°56' W 082°26'0 0.0
2017-Oct-12 13:30N 27°56' W 082°26'0 0.0
2017-Oct-12 13:00N 27°56' W 082°26'0 0.0
2017-Oct-12 12:30N 27°56' W 082°26'0 0.0
2017-Oct-12 12:00N 27°56' W 082°26'0 0.0
2017-Oct-12 11:30N 27°56' W 082°26'0 0.0
2017-Oct-12 11:00N 27°56' W 082°26'0 0.0
2017-Oct-12 10:30N 27°56' W 082°26'0 0.0
2017-Oct-12 10:00N 27°56' W 082°26'0 0.0
2017-Oct-12 09:30N 27°56' W 082°26'0 0.0
2017-Oct-12 09:00N 27°56' W 082°26'0 0.0
2017-Oct-12 08:30N 27°56' W 082°26'0 0.0
2017-Oct-12 08:00N 27°56' W 082°26'0 0.0
2017-Oct-12 07:30N 27°56' W 082°26'0 0.0
2017-Oct-12 07:00N 27°56' W 082°26'0 0.0
2017-Oct-12 06:30N 27°56' W 082°26'0 0.0
2017-Oct-12 06:00N 27°56' W 082°26'0 0.0
2017-Oct-12 05:30N 27°56' W 082°26'0 0.0
2017-Oct-12 05:00N 27°56' W 082°26'0 0.0
2017-Oct-12 04:30N 27°56' W 082°26'0 0.0
2017-Oct-12 04:00N 27°56' W 082°26'0 0.0
2017-Oct-12 03:30N 27°56' W 082°26'0 0.0
2017-Oct-12 03:00N 27°56' W 082°26'0 0.0
2017-Oct-12 02:30N 27°56' W 082°26'1 2.1
2017-Oct-12 02:01N 27°55' W 082°27'0 0.4
2017-Oct-12 01:31N 27°55' W 082°27'2 4.0
2017-Oct-12 01:00N 27°53' W 082°27'3 5.1
2017-Oct-12 00:30N 27°55' W 082°26'1 1.5
2017-Oct-12 00:00N 27°56' W 082°26'0 0.0
2017-Oct-11 23:30N 27°56' W 082°26'0 0.0
2017-Oct-11 23:00N 27°56' W 082°26'0 0.0
2017-Oct-11 22:30N 27°56' W 082°26'0 0.0
2017-Oct-11 22:00N 27°56' W 082°26'0 0.0
2017-Oct-11 21:30N 27°56' W 082°26'0 0.0
2017-Oct-11 21:00N 27°56' W 082°26'0 0.0
2017-Oct-11 20:30N 27°56' W 082°26'0 0.0
2017-Oct-11 20:00N 27°56' W 082°26'0 0.0
2017-Oct-11 19:30N 27°56' W 082°26'0 0.0
2017-Oct-11 19:00N 27°56' W 082°26'0 0.0
2017-Oct-11 18:30N 27°56' W 082°26'0 0.0
2017-Oct-11 18:00N 27°56' W 082°26'0 0.0
2017-Oct-11 17:30N 27°56' W 082°26'0 0.0
2017-Oct-11 17:00N 27°56' W 082°26'  

Dump ship's entire track history